Time;durP1;ratioP1;P1;durP2;ratioP2;P2;SDS_P1;SDS_P2;PMS_P1;PMS_P2;Temp;Humidity;BMP_temperature;BMP_pressure;BME280_temperature;BME280_humidity;BME280_pressure;Samples;Min_cycle;Max_cycle;Signal;HPM_P1;HPM_P2
2023/02/06 00:01:14;;;;;;;54.28;21.20;;;;;;;0.69;100.00;101128.78;5030125;28;20724;-79
2023/02/06 00:03:40;;;;;;;46.97;19.60;;;;;;;0.65;100.00;101120.03;5030193;28;20049;-79
2023/02/06 00:06:08;;;;;;;50.13;20.63;;;;;;;0.84;100.00;101143.25;5030385;28;20061;-79
2023/02/06 00:08:34;;;;;;;52.90;23.83;;;;;;;0.67;100.00;101115.47;5032185;28;20145;-79
2023/02/06 00:11:05;;;;;;;43.15;20.55;;;;;;;0.69;100.00;101115.41;5031822;28;20241;-79
2023/02/06 00:13:32;;;;;;;44.05;20.92;;;;;;;0.65;100.00;101119.19;5020110;28;20042;-78
2023/02/06 00:15:58;;;;;;;47.53;20.80;;;;;;;0.64;100.00;101107.59;5023689;28;20053;-79
2023/02/06 00:18:29;;;;;;;49.78;21.10;;;;;;;0.64;100.00;101112.94;5018557;28;20053;-79
2023/02/06 00:20:55;;;;;;;60.63;21.88;;;;;;;0.70;100.00;101123.34;5026164;28;20108;-79
2023/02/06 00:23:22;;;;;;;67.75;24.67;;;;;;;0.68;100.00;101109.19;5028796;28;20132;-78
2023/02/06 00:25:48;;;;;;;59.83;22.75;;;;;;;0.74;100.00;101108.03;5024345;28;20049;-79
2023/02/06 00:28:16;;;;;;;57.97;21.98;;;;;;;0.72;100.00;101115.25;5025316;28;20050;-79
2023/02/06 00:30:46;;;;;;;66.07;24.58;;;;;;;0.78;100.00;101117.63;5031204;28;20052;-79
2023/02/06 00:33:12;;;;;;;47.30;21.25;;;;;;;0.69;100.00;101102.00;5025028;28;20049;-79
2023/02/06 00:35:39;;;;;;;59.83;24.17;;;;;;;0.77;100.00;101125.75;5033631;28;20329;-79
2023/02/06 00:38:05;;;;;;;65.38;25.50;;;;;;;0.63;100.00;101116.59;5033778;28;20482;-79
2023/02/06 00:40:32;;;;;;;72.80;24.70;;;;;;;0.79;100.00;101129.22;5029223;28;20052;-79
2023/02/06 00:42:58;;;;;;;67.60;24.33;;;;;;;0.57;100.00;101103.47;5032599;28;20045;-79
2023/02/06 00:45:26;;;;;;;64.43;23.83;;;;;;;0.69;100.00;101110.03;5032438;28;20515;-79
2023/02/06 00:47:53;;;;;;;52.00;22.00;;;;;;;0.65;100.00;101117.38;5031782;28;20049;-79
2023/02/06 00:50:19;;;;;;;53.83;20.95;;;;;;;0.60;100.00;101118.53;5032174;28;20045;-79
2023/02/06 00:52:46;;;;;;;42.35;19.45;;;;;;;0.69;100.00;101124.31;5025960;28;20053;-79
2023/02/06 00:55:13;;;;;;;60.97;22.52;;;;;;;0.75;100.00;101124.94;5030486;28;20400;-79
2023/02/06 00:57:39;;;;;;;60.47;22.60;;;;;;;0.66;100.00;101116.44;5031331;28;20053;-79
2023/02/06 01:00:08;;;;;;;43.10;19.98;;;;;;;0.60;100.00;101100.63;5027580;28;20508;-79
2023/02/06 01:02:36;;;;;;;43.45;19.25;;;;;;;0.69;100.00;101137.72;5029176;28;20041;-78
2023/02/06 01:05:02;;;;;;;44.22;20.48;;;;;;;0.48;100.00;101109.25;5032769;28;20060;-78
2023/02/06 01:07:29;;;;;;;48.53;20.15;;;;;;;0.42;100.00;101114.91;5019136;28;20049;-78
2023/02/06 01:09:56;;;;;;;48.20;20.92;;;;;;;0.68;100.00;101132.44;5033027;28;20056;-79
2023/02/06 01:12:22;;;;;;;37.00;19.05;;;;;;;0.45;100.00;101120.13;5031406;28;20048;-78
2023/02/06 01:14:49;;;;;;;44.85;20.33;;;;;;;0.56;100.00;101120.50;5027838;28;20057;-79
2023/02/06 01:17:15;;;;;;;48.05;20.08;;;;;;;0.50;100.00;101123.47;5030509;28;20485;-78
2023/02/06 01:19:43;;;;;;;48.08;21.15;;;;;;;0.65;100.00;101154.84;5030812;28;20072;-78
2023/02/06 01:22:10;;;;;;;45.05;20.95;;;;;;;0.42;100.00;101120.25;5032409;28;20053;-78
2023/02/06 01:24:36;;;;;;;48.15;21.85;;;;;;;0.56;100.00;101141.00;5014528;28;20052;-79
2023/02/06 01:27:03;;;;;;;49.03;21.88;;;;;;;0.56;100.00;101136.56;5012945;28;20054;-79
2023/02/06 01:29:30;;;;;;;44.92;18.98;;;;;;;0.45;100.00;101114.75;5014718;28;20053;-79
2023/02/06 01:31:56;;;;;;;50.22;20.15;;;;;;;0.43;100.00;101128.22;5032558;28;20041;-79
2023/02/06 01:34:23;;;;;;;42.55;19.85;;;;;;;0.47;100.00;101123.59;5032564;28;20496;-79
2023/02/06 01:36:51;;;;;;;45.50;19.65;;;;;;;0.44;100.00;101124.59;5033652;28;20045;-79
2023/02/06 01:39:17;;;;;;;45.67;21.38;;;;;;;0.37;100.00;101108.91;5033288;28;20052;-79
2023/02/06 01:41:44;;;;;;;49.45;23.00;;;;;;;0.41;100.00;101113.19;5013352;28;20080;-79
2023/02/06 01:44:14;;;;;;;44.72;20.70;;;;;;;0.33;100.00;101106.38;5016571;28;20050;-79
2023/02/06 01:46:42;;;;;;;46.33;21.75;;;;;;;0.52;100.00;101130.44;5027096;28;20049;-79
2023/02/06 01:49:15;;;;;;;42.15;20.60;;;;;;;0.40;100.00;101108.78;5033222;28;20575;-79
2023/02/06 01:51:43;;;;;;;45.88;20.95;;;;;;;0.46;100.00;101124.53;5033011;28;20042;-79
2023/02/06 01:54:13;;;;;;;47.72;22.55;;;;;;;0.38;100.00;101114.19;5032431;28;20057;-79
2023/02/06 01:56:45;;;;;;;49.40;22.77;;;;;;;0.39;100.00;101099.00;5018215;28;20078;-79
2023/02/06 01:59:12;;;;;;;47.95;22.20;;;;;;;0.56;100.00;101133.88;5029475;28;20128;-79
2023/02/06 02:01:40;;;;;;;48.80;23.52;;;;;;;0.54;100.00;101114.31;5026238;28;20046;-78
2023/02/06 02:04:14;;;;;;;45.47;21.05;;;;;;;0.42;100.00;101114.91;5028810;28;20041;-78
2023/02/06 02:06:41;;;;;;;53.20;22.45;;;;;;;0.53;100.00;101121.50;5032633;28;20056;-79
2023/02/06 02:09:08;;;;;;;46.83;22.15;;;;;;;0.52;100.00;101126.91;5032712;28;20048;-79
2023/02/06 02:11:37;;;;;;;44.70;19.35;;;;;;;0.42;100.00;101107.78;5022396;28;20511;-79
2023/02/06 02:14:07;;;;;;;45.03;21.67;;;;;;;0.44;100.00;101099.66;5031339;28;20049;-79
2023/02/06 02:16:48;;;;;;;46.20;21.98;;;;;;;0.51;100.00;101109.13;5014364;28;20505;-79
2023/02/06 02:19:53;;;;;;;41.95;20.30;;;;;;;0.60;100.00;101116.69;5030695;28;20045;-79
2023/02/06 02:22:39;;;;;;;37.97;18.30;;;;;;;0.64;100.00;101120.97;4996241;28;20053;-79
2023/02/06 02:25:38;;;;;;;43.50;21.20;;;;;;;0.70;100.00;101133.22;5031354;28;20485;-78
2023/02/06 02:28:45;;;;;;;46.38;20.67;;;;;;;0.49;100.00;101106.50;5029277;28;20077;-79
2023/02/06 02:31:54;;;;;;;49.88;21.70;;;;;;;0.50;100.00;101128.81;5012590;28;20050;-79
2023/02/06 02:34:57;;;;;;;41.70;20.48;;;;;;;0.66;100.00;101128.94;5012565;28;20065;-79
2023/02/06 02:37:31;;;;;;;43.95;22.02;;;;;;;0.51;100.00;101085.03;5031172;28;20041;-79
2023/02/06 02:40:06;;;;;;;42.38;20.52;;;;;;;0.48;100.00;101106.59;5026590;28;20045;-79
2023/02/06 02:42:38;;;;;;;27.77;15.38;;;;;;;0.26;100.00;101080.84;5023885;28;20053;-79
2023/02/06 02:45:12;;;;;;;38.30;20.48;;;;;;;0.38;100.00;101091.91;5032733;28;20072;-79
2023/02/06 02:47:45;;;;;;;47.50;20.30;;;;;;;0.30;100.00;101087.81;5014887;28;20061;-79
2023/02/06 02:50:15;;;;;;;39.33;20.73;;;;;;;0.35;100.00;101091.13;5012536;28;20056;-79
2023/02/06 02:52:42;;;;;;;41.40;21.13;;;;;;;0.43;100.00;101100.59;5029704;28;20049;-79
2023/02/06 02:55:18;;;;;;;38.97;20.23;;;;;;;0.43;100.00;101098.78;5027163;28;20045;-79
2023/02/06 02:57:50;;;;;;;37.00;18.77;;;;;;;0.51;100.00;101106.44;5023444;28;20072;-79
2023/02/06 03:00:20;;;;;;;42.28;19.55;;;;;;;0.37;100.00;101103.56;5024354;28;20046;-78
2023/02/06 03:02:49;;;;;;;41.50;19.20;;;;;;;0.22;100.00;101089.09;5029872;28;20056;-79
2023/02/06 03:05:20;;;;;;;;;;;;;;;0.34;100.00;101112.59;5011964;28;20064;-78
2023/02/06 03:07:58;;;;;;;32.53;17.88;;;;;;;0.40;100.00;101108.78;5022773;28;19925;-78
2023/02/06 03:10:32;;;;;;;39.05;19.77;;;;;;;0.41;100.00;101118.53;5022440;28;20136;-79
2023/02/06 03:13:05;;;;;;;34.90;19.85;;;;;;;0.19;100.00;101089.22;5030342;28;20061;-79
2023/02/06 03:15:36;;;;;;;41.53;19.50;;;;;;;0.24;100.00;101112.16;5030649;28;20053;-78
2023/02/06 03:18:08;;;;;;;40.15;18.38;;;;;;;0.08;100.00;101087.91;5028959;28;20389;-79
2023/02/06 03:20:42;;;;;;;33.72;17.83;;;;;;;0.26;100.00;101118.31;5018068;28;20056;-79
2023/02/06 03:23:12;;;;;;;32.53;16.83;;;;;;;0.12;100.00;101105.56;5016819;28;20383;-78
2023/02/06 03:25:42;;;;;;;35.08;18.02;;;;;;;0.12;100.00;101105.56;5030669;28;20413;-78
2023/02/06 03:28:15;;;;;;;39.15;18.60;;;;;;;-0.01;100.00;101083.00;5030638;28;20051;-79
2023/02/06 03:30:46;;;;;;;34.70;18.50;;;;;;;-0.02;100.00;101108.84;5030768;28;20064;-79
2023/02/06 03:33:15;;;;;;;35.20;19.05;;;;;;;-0.09;100.00;101101.19;5028979;28;20049;-79
2023/02/06 03:35:43;;;;;;;38.07;20.17;;;;;;;-0.11;100.00;101089.69;5028691;28;20053;-79
2023/02/06 03:38:10;;;;;;;36.97;20.85;;;;;;;0.06;100.00;101113.00;5026438;28;20053;-79
2023/02/06 03:40:39;;;;;;;36.15;19.50;;;;;;;-0.01;100.00;101115.09;5024376;28;20374;-78
2023/02/06 03:43:07;;;;;;;37.43;20.43;;;;;;;-0.18;100.00;101089.13;5029773;28;20052;-79
2023/02/06 03:45:38;;;;;;;36.45;19.85;;;;;;;-0.04;100.00;101118.75;5029062;28;20128;-79
2023/02/06 03:48:10;;;;;;;37.60;18.77;;;;;;;-0.01;100.00;101115.09;5030531;28;20041;-79
2023/02/06 03:50:40;;;;;;;36.85;19.00;;;;;;;-0.07;100.00;101100.19;5021780;28;20053;-79
2023/02/06 03:53:11;;;;;;;38.30;18.73;;;;;;;-0.04;100.00;101137.47;5029349;28;20507;-78
2023/02/06 03:55:40;;;;;;;42.92;18.60;;;;;;;-0.24;100.00;101100.06;5021866;28;20056;-78
2023/02/06 03:58:12;;;;;;;39.85;19.63;;;;;;;-0.15;100.00;101128.19;5027414;28;20054;-78
2023/02/06 04:00:40;;;;;;;37.35;19.20;;;;;;;-0.17;100.00;101098.00;5030778;28;20042;-79
2023/02/06 04:03:09;;;;;;;33.60;19.10;;;;;;;-0.11;100.00;101136.00;5029714;28;20453;-79
2023/02/06 04:05:37;;;;;;;35.80;19.05;;;;;;;-0.11;100.00;101128.00;5025328;28;20413;-78
2023/02/06 04:08:03;;;;;;;37.25;20.15;;;;;;;-0.21;100.00;101134.66;5029840;28;20053;-79
2023/02/06 04:10:31;;;;;;;38.88;18.80;;;;;;;-0.24;100.00;101122.34;5028491;28;20050;-79
2023/02/06 04:12:58;;;;;;;36.47;18.42;;;;;;;-0.10;100.00;101134.22;5025350;28;20046;-78
2023/02/06 04:15:24;;;;;;;37.65;18.83;;;;;;;-0.21;100.00;101122.19;5029801;28;20199;-79
2023/02/06 04:17:51;;;;;;;37.88;18.33;;;;;;;-0.09;100.00;101127.91;5029673;28;20058;-79
2023/02/06 04:20:18;;;;;;;37.15;19.55;;;;;;;-0.11;100.00;101117.28;5023052;28;20096;-79
2023/02/06 04:22:45;;;;;;;48.47;21.40;;;;;;;-0.20;100.00;101105.22;5029125;28;20064;-78
2023/02/06 04:25:12;;;;;;;37.03;19.52;;;;;;;-0.06;100.00;101126.00;5029306;28;20411;-78
2023/02/06 04:27:40;;;;;;;38.42;20.25;;;;;;;-0.13;100.00;101111.16;5022199;28;20054;-78
2023/02/06 04:30:07;;;;;;;36.17;19.73;;;;;;;-0.12;100.00;101115.56;5020770;28;20053;-79
2023/02/06 04:32:35;;;;;;;36.38;19.33;;;;;;;-0.02;100.00;101114.19;5023811;28;20059;-79
2023/02/06 04:35:02;;;;;;;36.13;19.08;;;;;;;0.05;100.00;101112.13;5025675;28;20045;-79
2023/02/06 04:37:28;;;;;;;42.03;19.77;;;;;;;0.12;100.00;101118.94;5029480;28;20076;-79
2023/02/06 04:39:55;;;;;;;41.25;20.98;;;;;;;-0.11;100.00;101106.59;5032366;28;20438;-79
2023/02/06 04:42:21;;;;;;;38.90;20.20;;;;;;;-0.01;100.00;101115.94;5027721;28;20058;-79
2023/02/06 04:44:49;;;;;;;36.67;19.20;;;;;;;0.02;100.00;101114.09;5028990;28;20056;-79
2023/02/06 04:47:16;;;;;;;41.72;20.15;;;;;;;-0.01;100.00;101097.22;5030408;28;20068;-79
2023/02/06 04:49:42;;;;;;;35.60;19.13;;;;;;;0.06;100.00;101110.31;5024994;28;20048;-79
2023/02/06 04:52:09;;;;;;;38.70;18.48;;;;;;;0.08;100.00;101116.47;5030677;28;20413;-79
2023/02/06 04:54:35;;;;;;;35.65;18.05;;;;;;;0.05;100.00;101117.47;5025633;28;20041;-79
2023/02/06 04:57:02;;;;;;;38.85;19.13;;;;;;;0.13;100.00;101122.47;5030883;28;20049;-79
2023/02/06 04:59:29;;;;;;;37.95;19.80;;;;;;;0.10;100.00;101095.88;5023733;28;20390;-79
2023/02/06 05:01:57;;;;;;;43.03;21.13;;;;;;;0.03;100.00;101107.78;5023181;28;20412;-79
2023/02/06 05:04:24;;;;;;;35.13;18.70;;;;;;;0.18;100.00;101125.78;5032588;28;20052;-78
2023/02/06 05:06:50;;;;;;;42.55;19.25;;;;;;;0.01;100.00;101098.97;5033083;28;20061;-79
2023/02/06 05:09:17;;;;;;;40.53;19.25;;;;;;;0.11;100.00;101116.34;5033306;28;20060;-79
2023/02/06 05:11:43;;;;;;;35.25;19.27;;;;;;;0.02;100.00;101117.63;5033392;28;20057;-79
2023/02/06 05:14:10;;;;;;;41.92;19.65;;;;;;;0.04;100.00;101115.72;5027938;28;20493;-79
2023/02/06 05:16:37;;;;;;;39.65;19.77;;;;;;;0.04;100.00;101118.41;5032813;28;20477;-79
2023/02/06 05:19:04;;;;;;;47.15;23.13;;;;;;;0.00;100.00;101111.47;5027081;28;20052;-79
2023/02/06 05:21:31;;;;;;;47.25;21.50;;;;;;;0.17;100.00;101138.31;5028773;28;20540;-78
2023/02/06 05:23:58;;;;;;;54.65;24.17;;;;;;;0.12;100.00;101126.97;5029702;28;20041;-78
2023/02/06 05:26:24;;;;;;;49.00;21.75;;;;;;;0.27;100.00;101144.13;5030181;28;20049;-78
2023/02/06 05:28:51;;;;;;;41.75;20.90;;;;;;;0.22;100.00;101131.91;5031423;28;20053;-79
2023/02/06 05:31:18;;;;;;;40.85;18.83;;;;;;;0.13;100.00;101095.72;5030728;28;20048;-79
2023/02/06 05:33:45;;;;;;;36.85;19.20;;;;;;;0.30;100.00;101135.97;5030489;28;20507;-78
2023/02/06 05:36:14;;;;;;;38.08;19.50;;;;;;;0.21;100.00;101124.78;5029819;28;20049;-81
2023/02/06 05:38:40;;;;;;;29.23;14.77;;;;;;;0.28;100.00;101135.16;5026787;28;20041;-79
2023/02/06 05:41:07;;;;;;;32.30;17.30;;;;;;;0.21;100.00;101136.38;5031441;28;20049;-85
2023/02/06 05:43:33;;;;;;;34.33;15.90;;;;;;;0.30;100.00;101127.94;5032615;28;20482;-81
2023/02/06 05:46:00;;;;;;;32.08;16.20;;;;;;;0.24;100.00;101128.22;5026752;28;20497;-81
2023/02/06 05:48:27;;;;;;;35.55;17.60;;;;;;;0.22;100.00;101122.06;5021614;28;20052;-80
2023/02/06 05:50:55;;;;;;;37.03;18.08;;;;;;;0.03;100.00;101095.31;5026051;28;20072;-81
2023/02/06 05:53:23;;;;;;;32.33;17.02;;;;;;;-0.01;100.00;101105.25;5021106;28;20056;-81
2023/02/06 05:55:49;;;;;;;34.78;17.08;;;;;;;0.17;100.00;101126.75;5029537;28;20045;-81
2023/02/06 05:58:16;;;;;;;33.50;17.23;;;;;;;0.13;100.00;101117.97;5030937;28;20052;-80
2023/02/06 06:00:43;;;;;;;41.72;18.70;;;;;;;0.10;100.00;101103.91;5029815;28;20053;-80
2023/02/06 06:03:09;;;;;;;32.70;16.63;;;;;;;0.24;100.00;101117.53;5030180;28;20052;-80
2023/02/06 06:05:36;;;;;;;27.70;13.85;;;;;;;0.10;100.00;101119.94;5024889;28;20068;-81
2023/02/06 06:08:03;;;;;;;17.83;8.88;;;;;;;0.25;100.00;101124.59;5028120;28;20523;-81
2023/02/06 06:10:32;;;;;;;13.88;7.93;;;;;;;0.20;100.00;101115.03;5026501;28;20072;-80
2023/02/06 06:12:58;;;;;;;15.23;7.45;;;;;;;0.28;100.00;101123.59;5032413;28;20044;-81
2023/02/06 06:15:25;;;;;;;12.23;7.30;;;;;;;0.31;100.00;101129.66;5030646;28;20083;-81
2023/02/06 06:17:52;;;;;;;13.38;7.80;;;;;;;0.22;100.00;101113.16;5032427;28;20045;-81
2023/02/06 06:20:18;;;;;;;13.82;7.50;;;;;;;0.20;100.00;101102.53;5027586;28;20386;-79
2023/02/06 06:22:45;;;;;;;14.23;5.85;;;;;;;0.14;100.00;101110.84;5024864;28;20045;-80
2023/02/06 06:25:11;;;;;;;15.52;5.85;;;;;;;0.27;100.00;101141.44;5024233;28;20056;-80
2023/02/06 06:27:40;;;;;;;8.85;5.07;;;;;;;0.14;100.00;101133.09;5032649;28;20053;-80
2023/02/06 06:30:08;;;;;;;10.63;4.78;;;;;;;0.10;100.00;101142.19;5028566;28;20349;-80
2023/02/06 06:32:36;;;;;;;9.43;5.65;;;;;;;0.24;100.00;101156.75;5026928;28;20121;-80
2023/02/06 06:35:02;;;;;;;9.77;5.30;;;;;;;0.03;100.00;101143.44;5030355;28;20045;-80
2023/02/06 06:37:29;;;;;;;11.55;6.03;;;;;;;0.05;100.00;101140.69;5030191;28;20049;-80
2023/02/06 06:39:55;;;;;;;10.93;6.00;;;;;;;0.23;100.00;101168.41;5028746;28;20058;-80
2023/02/06 06:42:22;;;;;;;9.23;4.97;;;;;;;0.12;100.00;101142.13;5028555;28;20064;-80
2023/02/06 06:44:50;;;;;;;8.70;5.22;;;;;;;0.18;100.00;101149.88;5031290;28;20048;-80
2023/02/06 06:47:16;;;;;;;11.73;5.57;;;;;;;0.19;100.00;101140.06;5026637;28;20042;-80
2023/02/06 06:49:43;;;;;;;10.77;5.80;;;;;;;0.23;100.00;101141.66;5030285;28;20052;-80
2023/02/06 06:52:09;;;;;;;10.68;5.50;;;;;;;0.19;100.00;101118.66;5029430;28;20042;-80
2023/02/06 06:54:36;;;;;;;12.00;6.38;;;;;;;0.19;100.00;101116.84;5027144;28;20057;-80
2023/02/06 06:57:02;;;;;;;9.40;5.38;;;;;;;0.20;100.00;101131.06;5029468;28;20042;-80
2023/02/06 06:59:29;;;;;;;9.43;6.10;;;;;;;0.26;100.00;101133.50;5029847;28;20053;-80
2023/02/06 07:01:57;;;;;;;10.27;5.38;;;;;;;0.24;100.00;101130.91;5022188;28;20477;-80
2023/02/06 07:04:28;;;;;;;11.70;6.68;;;;;;;0.26;100.00;101153.09;5026092;28;20587;-80
2023/02/06 07:06:54;;;;;;;9.27;5.80;;;;;;;0.24;100.00;101148.72;5032641;28;20053;-80
2023/02/06 07:09:21;;;;;;;10.98;6.68;;;;;;;0.29;100.00;101152.94;5030120;28;20512;-80
2023/02/06 07:11:48;;;;;;;11.85;6.38;;;;;;;0.32;100.00;101155.47;5022699;28;20056;-80
2023/02/06 07:14:14;;;;;;;10.82;6.15;;;;;;;0.31;100.00;101142.16;5024099;28;20068;-80
2023/02/06 07:16:41;;;;;;;13.90;5.90;;;;;;;0.39;100.00;101165.88;5028805;28;20044;-80
2023/02/06 07:19:09;;;;;;;16.77;7.15;;;;;;;0.25;100.00;101163.84;5016716;28;20054;-80
2023/02/06 07:21:35;;;;;;;11.98;6.25;;;;;;;0.18;100.00;101147.19;5015642;28;20112;-80
2023/02/06 07:24:02;;;;;;;12.75;7.38;;;;;;;0.33;100.00;101156.34;5029697;28;20448;-80
2023/02/06 07:26:29;;;;;;;12.88;6.65;;;;;;;0.40;100.00;101164.97;5026818;28;20048;-80
2023/02/06 07:28:56;;;;;;;12.63;6.40;;;;;;;0.32;100.00;101155.47;5030364;28;20520;-81
2023/02/06 07:31:22;;;;;;;10.55;5.70;;;;;;;0.21;100.00;101141.75;5030549;28;20049;-80
2023/02/06 07:33:49;;;;;;;11.40;7.45;;;;;;;0.29;100.00;101133.34;5030093;28;20056;-80
2023/02/06 07:36:18;;;;;;;15.07;7.10;;;;;;;0.25;100.00;101147.81;5015543;28;20046;-80
2023/02/06 07:38:47;;;;;;;11.90;7.28;;;;;;;0.44;100.00;101162.06;5010926;28;20046;-80
2023/02/06 07:41:15;;;;;;;15.30;6.45;;;;;;;0.42;100.00;101157.72;5023493;28;20060;-80
2023/02/06 07:43:41;;;;;;;9.82;5.97;;;;;;;0.33;100.00;101159.00;5026844;28;20048;-80
2023/02/06 07:46:07;;;;;;;12.50;6.75;;;;;;;0.34;100.00;101147.38;5025850;28;20068;-80
2023/02/06 07:48:34;;;;;;;14.77;7.13;;;;;;;0.35;100.00;101130.41;5029285;28;20049;-81
2023/02/06 07:51:05;;;;;;;11.15;5.68;;;;;;;0.37;100.00;101138.34;5023999;28;20103;-80
2023/02/06 07:53:34;;;;;;;9.75;5.38;;;;;;;0.42;100.00;101155.94;5025739;28;20050;-80
2023/02/06 07:56:00;;;;;;;8.02;4.78;;;;;;;0.43;100.00;101154.13;5028585;28;20047;-80
2023/02/06 07:58:27;;;;;;;9.57;4.65;;;;;;;0.43;100.00;101167.50;5024939;28;20489;-80
2023/02/06 08:00:54;;;;;;;5.78;4.00;;;;;;;0.55;100.00;101155.34;5024710;28;20128;-80
2023/02/06 08:03:21;;;;;;;8.10;5.10;;;;;;;0.43;100.00;101138.91;5026948;28;20129;-80
2023/02/06 08:05:48;;;;;;;9.88;5.78;;;;;;;0.56;100.00;101168.66;5025189;28;20057;-80
2023/02/06 08:08:14;;;;;;;15.73;5.28;;;;;;;0.42;100.00;101139.00;5021479;28;20049;-80
2023/02/06 08:10:42;;;;;;;10.60;4.78;;;;;;;0.58;100.00;101160.56;5027533;28;20424;-80
2023/02/06 08:13:08;;;;;;;19.23;7.45;;;;;;;0.57;100.00;101159.69;5019545;28;20072;-80
2023/02/06 08:15:35;;;;;;;12.45;5.72;;;;;;;0.56;100.00;101143.69;5028731;28;20056;-80
2023/02/06 08:18:02;;;;;;;9.93;5.75;;;;;;;0.56;100.00;101135.66;5030645;28;20456;-80
2023/02/06 08:20:28;;;;;;;9.85;5.93;;;;;;;0.60;100.00;101146.16;5030699;28;20037;-80
2023/02/06 08:22:55;;;;;;;9.88;6.03;;;;;;;0.52;100.00;101119.75;5021741;28;20041;-80
2023/02/06 08:25:21;;;;;;;9.98;5.90;;;;;;;0.76;100.00;101137.41;5023701;28;20424;-80
2023/02/06 08:27:52;;;;;;;7.45;5.32;;;;;;;0.92;100.00;101149.13;5032610;28;20045;-80
2023/02/06 08:30:19;;;;;;;9.80;5.05;;;;;;;0.83;100.00;101130.81;5025506;28;20052;-80
2023/02/06 08:32:45;;;;;;;10.40;5.70;;;;;;;0.88;100.00;101147.53;5027663;28;20062;-80
2023/02/06 08:35:12;;;;;;;15.15;7.03;;;;;;;0.95;100.00;101146.28;5024087;28;20071;-80
2023/02/06 08:37:39;;;;;;;12.40;9.13;;;;;;;1.10;100.00;101143.78;5028864;28;20042;-80
2023/02/06 08:40:07;;;;;;;11.50;7.03;;;;;;;1.13;100.00;101151.66;5025024;28;20639;-80
2023/02/06 08:42:35;;;;;;;16.05;6.72;;;;;;;1.04;100.00;101139.63;5025930;28;20041;-80
2023/02/06 08:45:02;;;;;;;8.25;5.28;;;;;;;1.00;100.00;101111.25;5031156;28;20411;-80
2023/02/06 08:47:29;;;;;;;10.25;5.28;;;;;;;0.99;100.00;101138.97;5021145;28;20050;-80
2023/02/06 08:49:56;;;;;;;11.13;4.57;;;;;;;1.18;100.00;101161.22;5030708;28;20053;-80
2023/02/06 08:52:26;;;;;;;14.68;5.65;;;;;;;1.04;100.00;101139.63;5028091;28;20048;-80
2023/02/06 08:54:52;;;;;;;9.68;5.35;;;;;;;1.01;100.00;101151.34;5029637;28;20137;-80
2023/02/06 08:57:22;;;;;;;12.05;5.18;;;;;;;1.09;100.00;101150.97;5028341;28;20042;-80
2023/02/06 08:59:48;;;;;;;8.02;4.30;;;;;;;0.95;100.00;101132.91;5029862;28;20045;-80
2023/02/06 09:02:16;;;;;;;9.38;5.10;;;;;;;1.14;100.00;101156.94;5031987;28;20084;-80
2023/02/06 09:04:43;;;;;;;6.88;4.25;;;;;;;1.02;100.00;101153.09;5033333;28;20045;-81
2023/02/06 09:07:09;;;;;;;8.73;4.03;;;;;;;0.95;100.00;101165.03;5039405;28;20049;-80
2023/02/06 09:09:36;;;;;;;7.93;5.40;;;;;;;0.92;100.00;101142.88;5024519;28;20048;-80
2023/02/06 09:12:04;;;;;;;9.35;4.93;;;;;;;0.97;100.00;101131.00;5032225;28;20080;-80
2023/02/06 09:14:31;;;;;;;11.55;6.00;;;;;;;1.13;100.00;101146.31;5033230;28;20484;-81
2023/02/06 09:16:57;;;;;;;9.98;5.80;;;;;;;1.08;100.00;101145.69;5032833;28;20042;-80
2023/02/06 09:19:26;;;;;;;11.45;5.65;;;;;;;1.10;100.00;101141.09;5033291;28;20050;-80
2023/02/06 09:21:52;;;;;;;16.98;6.30;;;;;;;1.08;100.00;101140.31;5032653;28;20052;-80
2023/02/06 09:24:19;;;;;;;12.43;5.40;;;;;;;1.19;100.00;101140.66;5031129;28;20516;-80
2023/02/06 09:26:46;;;;;;;12.38;5.10;;;;;;;1.27;100.00;101142.97;5032715;28;20049;-81
2023/02/06 09:29:13;;;;;;;12.15;4.63;;;;;;;1.35;100.00;101146.97;5031283;28;20045;-81
2023/02/06 09:31:41;;;;;;;8.75;4.05;;;;;;;1.36;100.00;101142.50;5032619;28;20064;-81
2023/02/06 09:34:09;;;;;;;10.02;5.53;;;;;;;1.30;100.00;101122.25;5032124;28;20045;-80
2023/02/06 09:36:37;;;;;;;10.65;5.45;;;;;;;1.36;100.00;101118.38;5032549;28;20041;-80
2023/02/06 09:39:05;;;;;;;11.00;4.63;;;;;;;1.38;100.00;101109.31;5032592;28;20045;-80
2023/02/06 09:41:35;;;;;;;7.68;3.90;;;;;;;1.51;100.00;101122.09;5017201;28;20509;-80
2023/02/06 09:44:10;;;;;;;9.15;5.18;;;;;;;1.41;100.00;101103.78;5013018;28;20060;-80
2023/02/06 09:46:44;;;;;;;8.65;5.13;;;;;;;1.49;100.00;101105.22;5013271;28;20049;-80
2023/02/06 09:49:14;;;;;;;14.25;4.75;;;;;;;1.67;100.00;101119.47;5013118;28;20061;-81
2023/02/06 09:51:57;;;;;;;11.23;4.82;;;;;;;1.56;100.00;101088.72;5025257;28;20108;-81
2023/02/06 09:54:31;;;;;;;8.70;4.30;;;;;;;1.49;100.00;101090.00;5028750;28;20053;-80
2023/02/06 09:57:05;;;;;;;10.60;4.78;;;;;;;1.63;100.00;101091.97;5031214;28;20052;-80
2023/02/06 09:59:35;;;;;;;12.00;4.78;;;;;;;1.72;100.00;101099.53;5011422;28;20061;-80
2023/02/06 10:02:21;;;;;;;13.00;4.85;;;;;;;1.76;100.00;101076.97;5019068;28;20049;-80
2023/02/06 10:04:56;;;;;;;9.98;5.18;;;;;;;1.84;100.00;101091.78;5021279;28;20053;-80
2023/02/06 10:07:38;;;;;;;9.48;4.70;;;;;;;1.77;100.00;101072.47;5028308;28;20049;-80
2023/02/06 10:10:12;;;;;;;13.35;5.72;;;;;;;1.86;100.00;101096.09;5029575;28;20489;-80
2023/02/06 10:12:44;;;;;;;22.83;8.77;;;;;;;1.73;100.00;101068.19;5026637;28;20057;-81
2023/02/06 10:15:14;;;;;;;14.60;6.82;;;;;;;1.85;100.00;101074.72;5035080;28;20053;-80
2023/02/06 10:17:48;;;;;;;32.15;21.42;;;;;;;1.67;100.00;101050.66;5027417;28;20404;-81
2023/02/06 10:20:19;;;;;;;15.20;8.35;;;;;;;1.89;100.00;101073.63;5029250;28;20054;-80
2023/02/06 10:23:01;;;;;;;24.08;15.65;;;;;;;1.97;100.00;101057.97;5037395;28;20068;-81
2023/02/06 10:25:32;;;;;;;28.65;19.85;;;;;;;2.10;100.00;101060.88;5031966;28;20270;-80
2023/02/06 10:28:02;;;;;;;19.98;9.95;;;;;;;1.82;100.00;101038.22;5032076;28;20436;-81
2023/02/06 10:30:41;;;;;;;16.48;8.95;;;;;;;1.95;100.00;101033.91;5031398;28;20058;-81
2023/02/06 10:33:16;;;;;;;92.45;40.50;;;;;;;1.91;100.00;101034.16;5030464;28;20160;-81
2023/02/06 10:35:52;;;;;;;29.13;16.33;;;;;;;2.06;100.00;101048.56;5024032;28;20048;-80
2023/02/06 10:38:37;;;;;;;18.80;10.65;;;;;;;2.11;100.00;101039.31;5046802;28;20472;-80
2023/02/06 10:41:12;;;;;;;15.90;9.25;;;;;;;2.25;100.00;101048.44;5051376;28;20053;-81
2023/02/06 10:43:46;;;;;;;24.85;16.55;;;;;;;1.94;100.00;101053.66;5050830;28;20480;-81
2023/02/06 10:46:34;;;;;;;12.15;6.50;;;;;;;2.09;96.79;101070.75;5047662;28;20049;-80
2023/02/06 10:49:04;;;;;;;6.10;3.88;;;;;;;2.04;93.39;101042.44;5027305;28;20049;-80
2023/02/06 10:51:31;;;;;;;;;;;;;;;1.98;92.52;101067.75;5027953;28;20050;-80
2023/02/06 10:54:02;;;;;;;9.98;5.50;;;;;;;1.73;88.28;101039.59;5028308;28;19920;-80
2023/02/06 10:56:30;;;;;;;6.85;3.97;;;;;;;1.79;88.95;101029.47;5030014;28;20049;-81
2023/02/06 10:59:01;;;;;;;9.88;4.95;;;;;;;1.85;89.65;101051.47;5030940;28;20056;-80
2023/02/06 11:01:32;;;;;;;11.73;5.15;;;;;;;1.89;91.39;101057.53;5027622;28;20045;-81
2023/02/06 11:04:04;;;;;;;34.35;17.70;;;;;;;1.73;89.51;101034.22;5030100;28;20056;-80
2023/02/06 11:06:31;;;;;;;26.15;13.38;;;;;;;1.79;90.16;101034.84;5030424;28;20049;-80
2023/02/06 11:08:59;;;;;;;14.00;7.95;;;;;;;1.73;90.44;101025.31;5026643;28;20050;-81
2023/02/06 11:11:30;;;;;;;7.30;4.38;;;;;;;1.86;90.09;101021.00;5030088;28;20054;-80
2023/02/06 11:14:01;;;;;;;15.02;7.78;;;;;;;1.96;89.67;101016.03;5030385;28;20053;-80
2023/02/06 11:16:29;;;;;;;6.20;3.17;;;;;;;2.14;85.98;101019.50;5031277;28;20061;-81
2023/02/06 11:19:00;;;;;;;6.15;3.42;;;;;;;2.08;85.61;101017.16;5030996;28;20067;-81
2023/02/06 11:21:47;;;;;;;7.70;4.05;;;;;;;2.18;87.88;101030.94;5030670;28;20049;-80
2023/02/06 11:24:18;;;;;;;69.70;30.48;;;;;;;2.13;87.65;101017.75;5033149;28;20127;-80